sensor_id;sensor_type;location;lat;lon;timestamp;P1;durP1;ratioP1;P2;durP2;ratioP2
76123;SDS011;65173;48.066;20.976;2023-02-22T06:51:46;30.13;;;16.03;;
76123;SDS011;65173;48.066;20.976;2023-02-22T06:54:49;41.97;;;21.02;;
76123;SDS011;65173;48.066;20.976;2023-02-22T06:57:53;52.55;;;25.98;;
76123;SDS011;65173;48.066;20.976;2023-02-22T07:00:56;45.20;;;23.05;;
76123;SDS011;65173;48.066;20.976;2023-02-22T07:03:59;48.97;;;23.48;;
76123;SDS011;65173;48.066;20.976;2023-02-22T07:07:02;47.30;;;25.17;;
76123;SDS011;65173;48.066;20.976;2023-02-22T07:10:06;43.10;;;25.25;;
76123;SDS011;65173;48.066;20.976;2023-02-22T07:13:10;47.77;;;25.30;;
76123;SDS011;65173;48.066;20.976;2023-02-22T07:16:13;43.72;;;24.08;;
76123;SDS011;65173;48.066;20.976;2023-02-22T07:19:17;44.22;;;24.05;;
76123;SDS011;65173;48.066;20.976;2023-02-22T07:22:21;49.13;;;25.43;;
76123;SDS011;65173;48.066;20.976;2023-02-22T07:25:23;45.95;;;24.42;;
76123;SDS011;65173;48.066;20.976;2023-02-22T07:28:27;48.90;;;27.52;;
76123;SDS011;65173;48.066;20.976;2023-02-22T07:31:33;56.28;;;27.95;;
76123;SDS011;65173;48.066;20.976;2023-02-22T07:34:41;53.00;;;25.50;;
76123;SDS011;65173;48.066;20.976;2023-02-22T07:37:44;97.03;;;42.90;;
76123;SDS011;65173;48.066;20.976;2023-02-22T07:40:49;114.20;;;49.22;;
76123;SDS011;65173;48.066;20.976;2023-02-22T07:43:52;74.17;;;36.30;;
76123;SDS011;65173;48.066;20.976;2023-02-22T07:46:55;56.00;;;27.65;;
76123;SDS011;65173;48.066;20.976;2023-02-22T07:49:58;53.88;;;26.25;;
76123;SDS011;65173;48.066;20.976;2023-02-22T07:53:02;38.00;;;19.30;;
76123;SDS011;65173;48.066;20.976;2023-02-22T07:56:08;33.60;;;17.60;;
76123;SDS011;65173;48.066;20.976;2023-02-22T07:59:11;32.53;;;15.65;;
76123;SDS011;65173;48.066;20.976;2023-02-22T08:02:15;29.42;;;15.43;;
76123;SDS011;65173;48.066;20.976;2023-02-22T08:05:19;31.05;;;16.65;;
76123;SDS011;65173;48.066;20.976;2023-02-22T08:08:25;32.15;;;16.25;;
76123;SDS011;65173;48.066;20.976;2023-02-22T08:11:27;31.45;;;17.40;;
76123;SDS011;65173;48.066;20.976;2023-02-22T08:14:32;29.83;;;18.03;;
76123;SDS011;65173;48.066;20.976;2023-02-22T08:17:36;32.03;;;17.40;;
76123;SDS011;65173;48.066;20.976;2023-02-22T08:20:41;26.23;;;15.38;;
76123;SDS011;65173;48.066;20.976;2023-02-22T08:23:45;18.97;;;11.23;;
76123;SDS011;65173;48.066;20.976;2023-02-22T08:26:52;18.30;;;9.77;;
76123;SDS011;65173;48.066;20.976;2023-02-22T08:29:55;13.48;;;8.73;;
76123;SDS011;65173;48.066;20.976;2023-02-22T08:32:58;17.00;;;9.45;;
76123;SDS011;65173;48.066;20.976;2023-02-22T08:36:03;13.32;;;7.63;;
76123;SDS011;65173;48.066;20.976;2023-02-22T08:39:07;14.88;;;7.45;;
76123;SDS011;65173;48.066;20.976;2023-02-22T08:42:09;14.38;;;6.03;;
76123;SDS011;65173;48.066;20.976;2023-02-22T08:45:13;13.90;;;5.43;;
76123;SDS011;65173;48.066;20.976;2023-02-22T08:48:17;12.48;;;4.97;;
76123;SDS011;65173;48.066;20.976;2023-02-22T08:51:20;15.57;;;5.63;;
76123;SDS011;65173;48.066;20.976;2023-02-22T08:54:24;13.83;;;6.30;;
76123;SDS011;65173;48.066;20.976;2023-02-22T08:57:27;11.55;;;4.53;;
76123;SDS011;65173;48.066;20.976;2023-02-22T09:00:31;9.20;;;3.92;;
76123;SDS011;65173;48.066;20.976;2023-02-22T09:13:36;14.27;;;3.90;;
76123;SDS011;65173;48.066;20.976;2023-02-22T09:16:39;11.55;;;3.50;;
76123;SDS011;65173;48.066;20.976;2023-02-22T09:19:42;9.27;;;3.07;;
76123;SDS011;65173;48.066;20.976;2023-02-22T09:22:49;5.82;;;2.92;;
76123;SDS011;65173;48.066;20.976;2023-02-22T09:25:52;9.13;;;3.40;;
76123;SDS011;65173;48.066;20.976;2023-02-22T09:28:55;11.60;;;3.57;;
76123;SDS011;65173;48.066;20.976;2023-02-22T09:31:57;10.10;;;3.80;;
76123;SDS011;65173;48.066;20.976;2023-02-22T09:35:01;8.85;;;3.55;;
76123;SDS011;65173;48.066;20.976;2023-02-22T09:38:04;8.93;;;4.57;;
